Flight Track Log - Related Links

Times and Time Zones

All times are in EDT time to prevent confusion due to time zone crossing. See the N48FH flight status page for this flight to view local times or setup timezone preferences in your user account.

Time Position Orientation Groundspeed Altitude Reporting Facility
EDT Latitude Longitude Course Direction KTS MPH feet Rate Location/Type
Fri 04:01:23 PM 25.9097 -97.4142 North 105 121 900  Level Houston Center
Fri 04:02:49 PM 25.9536 -97.4106 North 108 124 2,200 840 Climbing Houston Center
Fri 04:03:03 PM 25.9608 -97.4111 356° North 110 127 2,300 700 Climbing Houston Center
Fri 04:03:49 PM 25.9850 -97.4108 North 113 130 2,900 581 Climbing Houston Center
Fri 04:04:05 PM 25.9933 -97.4092 10° North 115 132 2,900 492 Level Houston Center
Fri 04:04:50 PM 26.0208 -97.4106 357° North 124 143 3,400 581 Climbing Houston Center
Fri 04:05:07 PM 26.0314 -97.4097 North 125 144 3,500 627 Climbing Houston Center
Fri 04:05:57 PM 26.0614 -97.4144 352° North 127 146 4,100 581 Climbing Houston Center
Fri 04:06:09 PM 26.0658 -97.4139 North 125 144 4,100 492 Level Houston Center
Fri 04:06:58 PM 26.0931 -97.4172 354° North 120 138 4,600 484 Climbing Houston Center
Fri 04:07:11 PM 26.1019 -97.4161 North 122 140 4,600 492 Level Houston Center
Fri 04:07:59 PM 26.1272 -97.4194 353° North 122 140 5,100 581 Climbing Houston Center
Fri 04:08:13 PM 26.1367 -97.4175 10° North 124 143 5,200 545 Climbing Houston Center
Fri 04:09:16 PM 26.1767 -97.4192 358° North 132 152 5,800 632 Climbing Houston Center
Fri 04:10:07 PM 26.2053 -97.4228 354° North 129 148 6,400 581 Climbing Houston Center
Fri 04:10:18 PM 26.2119 -97.4217 North 128 147 6,400 556 Level Houston Center
Fri 04:11:01 PM 26.2392 -97.4231 357° North 126 145 6,900 484 Climbing Houston Center
Fri 04:11:20 PM 26.2494 -97.4236 357° North 126 145 6,900 122 Level Houston Center
Fri 04:11:50 PM 26.2667 -97.4261 353° North 128 147 7,000  Climbing Houston Center
Fri 04:12:22 PM 26.2900 -97.4242 North 144 166 6,900  Descending Houston Center
Fri 04:13:03 PM 26.3172 -97.4264 356° North 152 175 7,000  Climbing Houston Center
Fri 04:13:24 PM 26.3358 -97.4264 360° North 152 175 6,900  Descending Houston Center
Fri 04:13:58 PM 26.3578 -97.4303 351° North 154 177 7,000  Climbing Houston Center
Fri 04:14:26 PM 26.3778 -97.4294 North 152 175 6,900  Descending Houston Center
Fri 04:15:11 PM 26.4083 -97.4303 359° North 152 175 7,000  Climbing Houston Center
Fri 04:15:28 PM 26.4236 -97.4317 355° North 152 175 6,900  Descending Houston Center
Fri 04:16:06 PM 26.4486 -97.4342 355° North 152 175 7,000  Climbing Houston Center
Fri 04:16:30 PM 26.4658 -97.4336 North 152 175 6,900  Descending Houston Center
Fri 04:17:18 PM 26.4972 -97.4344 359° North 153 176 7,000  Climbing Houston Center
Fri 04:17:32 PM 26.5114 -97.4358 355° North 152 175 6,900  Descending Houston Center
Fri 04:18:13 PM 26.5375 -97.4383 355° North 152 175 7,000  Climbing Houston Center
Fri 04:18:35 PM 26.5542 -97.4378 North 153 176 6,900  Descending Houston Center
Fri 04:19:20 PM 26.5864 -97.4411 355° North 154 177 7,000  Climbing Houston Center
Fri 04:19:37 PM 26.5975 -97.4397 North 156 180 6,900 -76 Descending Houston Center
Fri 04:20:39 PM 26.6436 -97.4419 358° North 154 177 6,900  Level Houston Center
Fri 04:21:41 PM 26.6861 -97.4444 357° North 153 176 6,900 71 Level Houston Center
Fri 04:22:04 PM 26.7025 -97.4464 354° North 153 176 7,000  Climbing Houston Center
Fri 04:22:43 PM 26.7322 -97.4467 360° North 153 176 6,900  Descending Houston Center
Fri 04:23:17 PM 26.7533 -97.4489 355° North 153 176 7,000  Climbing Houston Center
Fri 04:23:45 PM 26.7747 -97.4492 359° North 153 176 6,900 -98 Descending Houston Center
Fri 04:24:18 PM 26.7981 -97.4522 353° North 156 180 6,900  Level Houston Center
Fri 04:24:47 PM 26.8203 -97.4528 359° North 153 176 6,900  Level Houston Center
Fri 04:25:07 PM 26.8339 -97.4542 355° North 153 176 6,900  Level Houston Center
Fri 04:25:49 PM 26.8633 -97.4558 357° North 155 178 6,900  Level Houston Center
Fri 04:26:20 PM 26.8850 -97.4592 352° North 155 178 6,900  Level Houston Center
Fri 04:26:51 PM 26.9094 -97.4589 North 154 177 6,900  Level Houston Center
Fri 04:27:21 PM 26.9294 -97.4600 357° North 154 177 6,900  Level Houston Center
Fri 04:27:53 PM 26.9525 -97.4608 358° North 155 178 6,900  Level Houston Center
Fri 04:28:22 PM 26.9719 -97.4636 353° North 155 178 6,900  Level Houston Center
Fri 04:28:56 PM 26.9981 -97.4631 North 159 183 6,900  Level Houston Center
Fri 04:29:23 PM 27.0161 -97.4647 355° North 154 177 6,900  Level Houston Center
Fri 04:29:58 PM 27.0400 -97.4656 358° North 156 180 6,900  Level Houston Center
Fri 04:30:23 PM 27.0608 -97.4681 354° North 155 178 6,900 -97 Level Houston Center
Fri 04:31:00 PM 27.0844 -97.4661 North 155 178 6,800 -295 Descending Houston Center
Fri 04:31:24 PM 27.1050 -97.4689 353° North 160 184 6,600 -484 Descending Houston Center
Fri 04:32:02 PM 27.1347 -97.4719 355° North 161 185 6,300 -393 Descending Houston Center
Fri 04:32:25 PM 27.1517 -97.4719 360° North 169 194 6,200 -290 Descending Houston Center
Fri 04:33:04 PM 27.1717 -97.4725 359° North 158 182 6,000 -492 Descending Houston Center
Fri 04:33:26 PM 27.1958 -97.4731 359° North 166 191 5,700 -581 Descending Houston Center
Fri 04:34:06 PM 27.2250 -97.4756 356° North 158 182 5,400 -590 Descending Houston Center
Fri 04:34:27 PM 27.2447 -97.4758 359° North 166 191 5,100 -581 Descending Houston Center
Fri 04:35:08 PM 27.2719 -97.4767 358° North 161 185 4,800 -492 Descending Houston Center
Fri 04:35:28 PM 27.2933 -97.4786 355° North 164 189 4,600 -484 Descending Houston Center
Fri 04:36:10 PM 27.3169 -97.4797 358° North 162 186 4,300 -545 Descending Houston Center
Fri 04:36:23 PM 27.3336 -97.4800 359° North 166 191 4,100 -387 Descending Houston Center
Fri 04:37:12 PM 27.3639 -97.4811 358° North 165 190 3,900 -200 Descending Houston Center
Fri 04:37:23 PM 27.3822 -97.4828 355° North 165 190 3,900  Level Houston Center
Fri 04:38:24 PM 27.4225 -97.4844 358° North 152 175 3,900  Level Houston Center
Fri 04:39:17 PM 27.4594 -97.4869 357° North 160 184 3,900  Level Houston Center
Fri 04:39:25 PM 27.4692 -97.4875 357° North 153 176 3,900 -290 Level Houston Center
Fri 04:40:19 PM 27.5022 -97.4892 357° North 156 180 3,600 -295 Descending Houston Center
Fri 04:40:26 PM 27.5092 -97.4892 360° North 157 181 3,600 -387 Level Houston Center
Fri 04:41:21 PM 27.5453 -97.4914 357° North 156 180 3,200 -537 Descending Houston Center
Fri 04:41:33 PM 27.5603 -97.4939 352° North 160 184 3,000 -636 Descending Houston Center
Fri 04:42:27 PM 27.6003 -97.4956 358° North 165 190 2,500 -550 Descending Houston Center
Fri 04:43:22 PM 27.6467 -97.4961 359° North 169 194 2,000 -466 Descending Houston Center
Fri 04:44:23 PM 27.6914 -97.4997 356° North 167 192 1,600 -443 Descending Houston Center
Fri 04:45:24 PM 27.7381 -97.5028 357° North 163 188 1,100 -269 Descending Houston Center
Fri 04:46:37 PM 27.7706 -97.5314 322° Northwest 108 124 1,000 -82 Descending Houston Center
Fri 04:48:00 PM 27.7704 -97.5012 98° East  Level Estimated
Fri 04:55:00 PM 27.7667 -97.5000 350° North  Level FlightAware Approximate

Login

Don't have an account? Register now (free) for customized features, flight alerts, and more!